createdAt,value
2022-08-27T00:02:08.378Z,8.93
2022-08-27T00:04:36.798Z,10.05
2022-08-27T00:07:06.036Z,8.10
2022-08-27T00:09:34.659Z,7.80
2022-08-27T00:12:04.208Z,9.48
2022-08-27T00:14:31.813Z,9.77
2022-08-27T00:16:59.297Z,8.88
2022-08-27T00:19:28.549Z,7.75
2022-08-27T00:21:56.206Z,7.40
2022-08-27T00:24:23.669Z,8.68
2022-08-27T00:26:53.361Z,7.93
2022-08-27T00:29:21.046Z,10.07
2022-08-27T00:31:53.223Z,12.05
2022-08-27T00:34:23.994Z,12.05
2022-08-27T00:36:53.248Z,11.50
2022-08-27T00:39:20.976Z,11.25
2022-08-27T00:41:48.592Z,13.10
2022-08-27T00:44:16.252Z,11.25
2022-08-27T00:46:49.412Z,12.43
2022-08-27T00:50:01.328Z,12.32
2022-08-27T00:52:37.058Z,14.00
2022-08-27T00:55:18.631Z,13.32
2022-08-27T00:57:55.164Z,11.90
2022-08-27T01:00:22.677Z,12.57
2022-08-27T01:02:50.516Z,10.23
2022-08-27T01:05:25.377Z,13.55
2022-08-27T01:07:59.371Z,11.82
2022-08-27T01:10:29.491Z,11.23
2022-08-27T01:12:57.673Z,10.05
2022-08-27T01:15:28.526Z,10.27
2022-08-27T01:17:57.977Z,10.25
2022-08-27T01:20:35.565Z,10.13
2022-08-27T01:23:54.907Z,12.80
2022-08-27T01:26:25.066Z,10.43
2022-08-27T01:28:53.147Z,10.75
2022-08-27T01:31:21.309Z,9.70
2022-08-27T01:34:01.808Z,10.40
2022-08-27T01:36:30.333Z,9.85
2022-08-27T01:38:58.033Z,12.35
2022-08-27T01:41:26.269Z,9.23
2022-08-27T01:43:54.098Z,8.35
2022-08-27T01:46:27.122Z,10.57
2022-08-27T01:48:55.371Z,7.85
2022-08-27T01:51:23.050Z,7.57
2022-08-27T01:53:51.113Z,10.15
2022-08-27T01:56:18.366Z,8.68
2022-08-27T01:58:45.973Z,8.05
2022-08-27T02:01:16.885Z,8.15
2022-08-27T02:03:44.763Z,7.88
2022-08-27T02:06:12.734Z,8.45
2022-08-27T02:08:40.828Z,10.45
2022-08-27T02:11:08.740Z,9.63
2022-08-27T02:13:37.040Z,7.72
2022-08-27T02:16:05.285Z,9.32
2022-08-27T02:18:32.778Z,9.73
2022-08-27T02:21:00.368Z,8.50
2022-08-27T02:23:27.458Z,7.63
2022-08-27T02:25:54.649Z,7.18
2022-08-27T02:28:22.353Z,8.48
2022-08-27T02:30:49.421Z,9.23
2022-08-27T02:33:16.838Z,9.90
2022-08-27T02:35:44.393Z,7.53
2022-08-27T02:38:13.485Z,7.70
2022-08-27T02:40:41.276Z,7.70
2022-08-27T02:43:09.320Z,9.25
2022-08-27T02:45:37.770Z,8.10
2022-08-27T02:48:06.181Z,7.65
2022-08-27T02:50:35.265Z,8.88
2022-08-27T02:53:04.900Z,7.90
2022-08-27T02:55:33.406Z,8.35
2022-08-27T02:58:01.786Z,7.15
2022-08-27T03:00:29.876Z,7.20
2022-08-27T03:02:57.988Z,7.70
2022-08-27T03:05:26.602Z,8.05
2022-08-27T03:07:53.769Z,8.98
2022-08-27T03:10:22.473Z,11.05
2022-08-27T03:12:50.389Z,8.98
2022-08-27T03:15:19.892Z,8.70
2022-08-27T03:18:07.084Z,9.25
2022-08-27T03:20:41.295Z,11.32
2022-08-27T03:23:10.393Z,9.40
2022-08-27T03:25:38.821Z,10.15
2022-08-27T03:28:06.397Z,10.30
2022-08-27T03:30:54.704Z,8.40
2022-08-27T03:33:22.334Z,8.95
2022-08-27T03:35:52.034Z,10.15
2022-08-27T03:38:20.714Z,8.65
2022-08-27T03:40:48.840Z,8.82
2022-08-27T03:43:18.879Z,9.38
2022-08-27T03:46:00.332Z,9.85
2022-08-27T03:48:32.273Z,8.25
2022-08-27T03:51:07.908Z,9.13
2022-08-27T03:53:37.648Z,7.97
2022-08-27T03:56:06.336Z,8.15
2022-08-27T03:58:35.878Z,7.45
2022-08-27T04:01:05.641Z,8.20
2022-08-27T04:03:35.266Z,7.07
2022-08-27T04:06:03.531Z,7.95
2022-08-27T04:08:31.161Z,7.93
2022-08-27T04:10:58.212Z,7.10
2022-08-27T04:13:25.725Z,8.60
2022-08-27T04:15:55.421Z,7.72
2022-08-27T04:18:22.757Z,7.82
2022-08-27T04:20:52.674Z,6.97
2022-08-27T04:23:20.786Z,8.00
2022-08-27T04:25:47.945Z,7.00
2022-08-27T04:28:16.572Z,7.28
2022-08-27T04:30:46.698Z,7.03
2022-08-27T04:33:14.844Z,7.35
2022-08-27T04:35:43.197Z,7.45
2022-08-27T04:38:10.754Z,5.80
2022-08-27T04:40:58.186Z,6.63
2022-08-27T04:43:28.158Z,6.88
2022-08-27T04:45:55.478Z,6.75
2022-08-27T04:48:22.530Z,8.95
2022-08-27T04:50:50.361Z,6.18
2022-08-27T04:53:18.596Z,7.15
2022-08-27T04:55:53.429Z,5.82
2022-08-27T04:58:23.612Z,6.90
2022-08-27T05:01:00.092Z,6.22
2022-08-27T05:03:31.609Z,6.88
2022-08-27T05:06:05.731Z,6.15
2022-08-27T05:08:34.617Z,7.28
2022-08-27T05:11:02.449Z,7.72
2022-08-27T05:13:30.081Z,7.63
2022-08-27T05:16:06.001Z,6.55
2022-08-27T05:18:41.713Z,7.03
2022-08-27T05:21:32.006Z,7.20
2022-08-27T05:24:04.606Z,6.40
2022-08-27T05:26:34.989Z,7.55
2022-08-27T05:29:06.550Z,6.97
2022-08-27T05:31:34.706Z,8.02
2022-08-27T05:34:10.719Z,9.02
2022-08-27T05:36:48.029Z,8.15
2022-08-27T05:39:17.527Z,8.52
2022-08-27T05:41:45.295Z,8.35
2022-08-27T05:44:46.289Z,8.70
2022-08-27T05:47:00.146Z,8.50
2022-08-27T05:49:27.217Z,8.35
2022-08-27T05:51:54.464Z,8.07
2022-08-27T05:54:22.156Z,9.15
2022-08-27T05:56:50.509Z,10.35
2022-08-27T05:59:37.493Z,7.50
2022-08-27T06:02:06.987Z,8.27
2022-08-27T06:04:34.682Z,8.20
2022-08-27T06:07:04.340Z,6.97
2022-08-27T06:09:33.470Z,7.78
2022-08-27T06:12:02.406Z,9.10
2022-08-27T06:14:30.329Z,7.95
2022-08-27T06:17:02.604Z,7.32
2022-08-27T06:19:30.346Z,8.60
2022-08-27T06:22:00.129Z,9.15
2022-08-27T06:24:30.029Z,9.45
2022-08-27T06:26:57.489Z,8.27
2022-08-27T06:29:25.081Z,8.98
2022-08-27T06:31:55.039Z,5.60
2022-08-27T06:34:22.346Z,8.68
2022-08-27T06:36:50.043Z,8.85
2022-08-27T06:39:17.713Z,6.72
2022-08-27T06:41:46.054Z,8.05
2022-08-27T06:44:14.286Z,7.72
2022-08-27T06:46:43.488Z,6.95
2022-08-27T06:49:12.829Z,6.50
2022-08-27T06:51:45.538Z,6.55
2022-08-27T06:54:15.375Z,6.82
2022-08-27T06:56:44.419Z,7.43
2022-08-27T06:59:16.373Z,6.75
2022-08-27T07:01:51.380Z,7.32
2022-08-27T07:04:27.843Z,7.28
2022-08-27T07:07:04.711Z,6.65
2022-08-27T07:09:33.916Z,8.77
2022-08-27T07:12:01.609Z,9.77
2022-08-27T07:14:34.273Z,6.53
2022-08-27T07:17:06.184Z,6.95
2022-08-27T07:19:41.090Z,7.82
2022-08-27T07:22:09.617Z,8.68
2022-08-27T07:24:38.147Z,5.60
2022-08-27T07:27:06.840Z,6.47
2022-08-27T07:29:34.708Z,9.35
2022-08-27T07:32:02.168Z,5.50
2022-08-27T07:34:29.516Z,6.57
2022-08-27T07:36:56.947Z,7.63
2022-08-27T07:39:24.041Z,7.10
2022-08-27T07:42:10.124Z,7.03
2022-08-27T07:44:37.985Z,5.75
2022-08-27T07:47:05.209Z,5.35
2022-08-27T07:49:34.977Z,6.47
2022-08-27T07:52:03.877Z,7.97
2022-08-27T07:54:31.196Z,7.88
2022-08-27T07:56:59.382Z,6.78
2022-08-27T07:59:27.618Z,7.78
2022-08-27T08:01:56.948Z,6.90
2022-08-27T08:04:24.911Z,6.45
2022-08-27T08:06:53.623Z,6.90
2022-08-27T08:09:23.816Z,6.80
2022-08-27T08:11:54.439Z,7.40
2022-08-27T08:14:22.299Z,8.98
2022-08-27T08:16:49.750Z,7.50
2022-08-27T08:19:17.493Z,6.80
2022-08-27T08:21:45.080Z,7.28
2022-08-27T08:24:12.133Z,7.60
2022-08-27T08:26:41.710Z,8.50
2022-08-27T08:29:09.279Z,7.65
2022-08-27T08:31:42.608Z,6.40
2022-08-27T08:34:10.669Z,6.25
2022-08-27T08:36:42.429Z,6.38
2022-08-27T08:39:13.457Z,8.68
2022-08-27T08:41:54.221Z,6.85
2022-08-27T08:44:41.386Z,6.03
2022-08-27T08:47:26.621Z,7.47
2022-08-27T08:50:19.583Z,7.03
2022-08-27T08:53:07.197Z,5.68
2022-08-27T08:56:01.918Z,7.80
2022-08-27T08:58:55.872Z,6.60
2022-08-27T09:01:24.741Z,6.80
2022-08-27T09:04:00.529Z,5.25
2022-08-27T09:06:45.313Z,7.30
2022-08-27T09:09:23.921Z,7.75
2022-08-27T09:12:11.827Z,6.35
2022-08-27T09:15:02.568Z,6.65
2022-08-27T09:17:33.519Z,5.05
2022-08-27T09:20:00.965Z,5.55
2022-08-27T09:23:06.677Z,5.55
2022-08-27T09:25:40.952Z,5.95
2022-08-27T09:28:43.070Z,5.45
2022-08-27T09:31:16.953Z,7.85
2022-08-27T09:33:56.431Z,6.55
2022-08-27T09:36:25.412Z,9.45
2022-08-27T09:39:04.344Z,8.20
2022-08-27T09:41:43.488Z,7.22
2022-08-27T09:44:14.388Z,7.45
2022-08-27T09:46:58.638Z,7.50
2022-08-27T09:49:27.032Z,5.63
2022-08-27T09:51:56.438Z,8.35
2022-08-27T09:54:46.562Z,6.20
2022-08-27T09:57:31.382Z,7.32
2022-08-27T09:59:58.881Z,7.65
2022-08-27T10:02:27.427Z,7.35
2022-08-27T10:05:02.981Z,6.07
2022-08-27T10:07:53.848Z,5.63
2022-08-27T10:10:37.113Z,6.73
2022-08-27T10:13:57.435Z,8.02
2022-08-27T10:17:02.683Z,7.88
2022-08-27T10:19:47.644Z,8.18
2022-08-27T10:22:32.534Z,10.25
2022-08-27T10:25:32.009Z,7.85
2022-08-27T10:28:17.736Z,6.72
2022-08-27T10:31:34.408Z,8.32
2022-08-27T10:34:32.204Z,6.47
2022-08-27T10:37:52.199Z,7.72
2022-08-27T10:40:39.149Z,6.60
2022-08-27T10:43:32.786Z,7.07
2022-08-27T10:46:52.157Z,8.75
2022-08-27T10:49:44.833Z,7.38
2022-08-27T10:52:29.120Z,6.65
2022-08-27T10:55:03.257Z,8.52
2022-08-27T10:58:08.359Z,10.13
2022-08-27T11:01:12.458Z,9.00
2022-08-27T11:04:17.461Z,7.68
2022-08-27T11:07:08.170Z,8.52
2022-08-27T11:09:57.258Z,7.07
2022-08-27T11:12:46.737Z,8.45
2022-08-27T11:15:25.643Z,8.02
2022-08-27T11:18:11.788Z,7.10
2022-08-27T11:21:13.243Z,9.73
2022-08-27T11:23:57.317Z,11.05
2022-08-27T11:26:24.985Z,10.95
2022-08-27T11:29:00.336Z,7.97
2022-08-27T11:32:12.207Z,6.85
2022-08-27T11:35:06.581Z,8.20
2022-08-27T11:38:06.850Z,6.93
2022-08-27T11:40:34.556Z,6.73
2022-08-27T11:43:09.134Z,5.93
2022-08-27T11:46:05.080Z,7.45
2022-08-27T11:48:54.952Z,7.68
2022-08-27T11:51:40.388Z,6.55
2022-08-27T11:54:22.241Z,7.25
2022-08-27T11:56:50.258Z,8.13
2022-08-27T11:59:26.634Z,5.88
2022-08-27T12:01:59.711Z,6.55
2022-08-27T12:04:41.946Z,7.55
2022-08-27T12:07:18.397Z,8.98
2022-08-27T12:10:00.485Z,7.20
2022-08-27T12:13:08.602Z,8.38
2022-08-27T12:16:12.593Z,7.57
2022-08-27T12:18:57.086Z,7.03
2022-08-27T12:21:39.069Z,5.88
2022-08-27T12:24:55.708Z,7.55
2022-08-27T12:27:28.355Z,7.53
2022-08-27T12:30:02.676Z,6.68
2022-08-27T12:32:35.974Z,5.55
2022-08-27T12:35:20.244Z,7.32
2022-08-27T12:38:10.061Z,6.07
2022-08-27T12:41:00.175Z,5.38
2022-08-27T12:43:33.639Z,5.97
2022-08-27T12:46:08.532Z,6.35
2022-08-27T12:48:56.916Z,5.60
2022-08-27T12:51:37.533Z,8.43
2022-08-27T12:54:35.846Z,5.17
2022-08-27T12:57:20.342Z,5.28
2022-08-27T13:00:19.752Z,5.90
2022-08-27T13:03:29.237Z,5.00
2022-08-27T13:05:57.817Z,5.55
2022-08-27T13:08:36.877Z,5.10
2022-08-27T13:11:24.443Z,4.05
2022-08-27T13:14:03.493Z,6.35
2022-08-27T13:16:31.959Z,5.18
2022-08-27T13:19:00.177Z,6.18
2022-08-27T13:21:32.776Z,6.32
2022-08-27T13:24:05.492Z,5.70
2022-08-27T13:26:37.453Z,5.13
2022-08-27T13:29:09.147Z,3.95
2022-08-27T13:31:38.471Z,4.18
2022-08-27T13:34:07.020Z,6.20
2022-08-27T13:36:58.025Z,4.00
2022-08-27T13:39:27.717Z,4.47
2022-08-27T13:41:59.389Z,5.22
2022-08-27T13:44:40.866Z,4.72
2022-08-27T13:47:24.921Z,3.83
2022-08-27T13:53:02.450Z,4.80
2022-08-27T13:55:31.009Z,5.20
2022-08-27T13:58:20.000Z,5.20
2022-08-27T14:00:47.644Z,5.75
2022-08-27T14:03:45.049Z,5.75
2022-08-27T14:06:40.509Z,5.07
2022-08-27T14:09:26.530Z,4.82
2022-08-27T14:12:08.251Z,7.38
2022-08-27T14:14:41.730Z,4.90
2022-08-27T14:17:29.721Z,4.28
2022-08-27T14:20:02.297Z,4.97
2022-08-27T14:22:34.280Z,4.90
2022-08-27T14:25:02.586Z,5.72
2022-08-27T14:27:29.858Z,4.72
2022-08-27T14:29:58.250Z,4.88
2022-08-27T14:32:25.348Z,7.35
2022-08-27T14:34:53.413Z,6.18
2022-08-27T14:37:20.866Z,4.90
2022-08-27T14:39:48.366Z,6.25
2022-08-27T14:42:17.564Z,5.78
2022-08-27T14:44:45.355Z,6.55
2022-08-27T14:47:16.026Z,4.90
2022-08-27T14:49:47.133Z,5.00
2022-08-27T14:52:15.431Z,7.50
2022-08-27T14:54:44.893Z,4.40
2022-08-27T14:57:12.555Z,6.65
2022-08-27T14:59:40.532Z,5.75
2022-08-27T15:02:14.013Z,5.22
2022-08-27T15:04:42.355Z,6.30
2022-08-27T15:07:14.504Z,5.65
2022-08-27T15:09:41.892Z,6.68
2022-08-27T15:12:15.069Z,5.93
2022-08-27T15:14:54.316Z,7.47
2022-08-27T15:17:35.510Z,6.07
2022-08-27T15:20:16.959Z,5.35
2022-08-27T15:22:52.133Z,5.40
2022-08-27T15:25:20.960Z,7.65
2022-08-27T15:27:49.746Z,5.70
2022-08-27T15:30:24.351Z,7.25
2022-08-27T15:32:52.224Z,6.97
2022-08-27T15:35:26.508Z,7.38
2022-08-27T15:37:57.197Z,7.60
2022-08-27T15:40:28.504Z,8.07
2022-08-27T15:43:02.313Z,7.05
2022-08-27T15:45:32.337Z,9.50
2022-08-27T15:48:01.358Z,8.50
2022-08-27T15:50:31.084Z,7.88
2022-08-27T15:53:04.844Z,10.50
2022-08-27T15:55:37.465Z,7.60
2022-08-27T15:58:06.112Z,8.10
2022-08-27T16:00:35.988Z,8.07
2022-08-27T16:03:09.263Z,10.73
2022-08-27T16:05:40.566Z,7.70
2022-08-27T16:08:09.094Z,6.43
2022-08-27T16:10:36.750Z,8.07
2022-08-27T16:13:04.923Z,5.93
2022-08-27T16:15:37.518Z,5.63
2022-08-27T16:18:04.910Z,6.30
2022-08-27T16:20:32.134Z,6.53
2022-08-27T16:23:00.610Z,6.80
2022-08-27T16:25:28.854Z,5.35
2022-08-27T16:27:57.923Z,7.93
2022-08-27T16:30:26.876Z,6.20
2022-08-27T16:32:55.059Z,8.50
2022-08-27T16:35:23.693Z,8.10
2022-08-27T16:37:52.249Z,6.22
2022-08-27T16:40:19.592Z,7.93
2022-08-27T16:42:50.731Z,7.18
2022-08-27T16:45:26.250Z,6.68
2022-08-27T16:48:12.580Z,6.45
2022-08-27T16:50:42.076Z,6.82
2022-08-27T16:53:15.505Z,7.05
2022-08-27T16:55:45.424Z,7.88
2022-08-27T16:58:22.530Z,8.35
2022-08-27T17:00:54.048Z,10.00
2022-08-27T17:03:24.006Z,7.20
2022-08-27T17:05:51.761Z,6.70
2022-08-27T17:08:26.092Z,10.63
2022-08-27T17:10:56.599Z,9.38
2022-08-27T17:13:29.710Z,9.50
2022-08-27T17:15:57.460Z,10.13
2022-08-27T17:18:27.723Z,11.35
2022-08-27T17:20:59.131Z,9.30
2022-08-27T17:23:41.102Z,8.85
2022-08-27T17:26:11.332Z,9.65
2022-08-27T17:28:40.777Z,11.50
2022-08-27T17:31:11.981Z,11.52
2022-08-27T17:36:15.191Z,13.25
2022-08-27T17:38:43.468Z,14.60
2022-08-27T17:41:22.011Z,14.60
2022-08-27T17:43:50.127Z,14.75
2022-08-27T17:46:17.900Z,18.40
2022-08-27T17:48:45.674Z,19.67
2022-08-27T17:51:13.638Z,19.33
2022-08-27T17:53:48.596Z,19.77
2022-08-27T17:56:19.190Z,23.15
2022-08-27T17:58:48.606Z,24.15
2022-08-27T18:01:28.330Z,26.45
2022-08-27T18:03:57.848Z,22.85
2022-08-27T18:06:27.628Z,21.83
2022-08-27T18:08:54.902Z,21.27
2022-08-27T18:11:22.671Z,21.90
2022-08-27T18:13:55.174Z,21.38
2022-08-27T18:16:23.000Z,20.73
2022-08-27T18:18:51.091Z,19.20
2022-08-27T18:21:25.616Z,18.80
2022-08-27T18:23:54.434Z,18.55
2022-08-27T18:26:27.516Z,16.95
2022-08-27T18:28:57.458Z,15.30
2022-08-27T18:31:31.484Z,17.17
2022-08-27T18:34:01.139Z,16.67
2022-08-27T18:36:29.630Z,14.82
2022-08-27T18:38:57.086Z,14.57
2022-08-27T18:41:29.213Z,15.98
2022-08-27T18:43:56.973Z,14.77
2022-08-27T18:46:24.526Z,15.25
2022-08-27T18:48:52.164Z,19.00
2022-08-27T18:51:20.209Z,15.95
2022-08-27T18:53:48.774Z,18.58
2022-08-27T18:56:19.437Z,16.67
2022-08-27T18:58:48.293Z,14.95
2022-08-27T19:01:25.352Z,19.77
2022-08-27T19:03:56.584Z,16.35
2022-08-27T19:06:24.037Z,17.20
2022-08-27T19:08:52.370Z,15.85
2022-08-27T19:11:20.204Z,14.70
2022-08-27T19:13:50.667Z,15.27
2022-08-27T19:16:43.943Z,14.55
2022-08-27T19:19:15.433Z,11.23
2022-08-27T19:21:43.843Z,12.50
2022-08-27T19:24:12.965Z,12.77
2022-08-27T19:26:41.486Z,10.40
2022-08-27T19:29:10.102Z,9.77
2022-08-27T19:31:38.470Z,11.30
2022-08-27T19:34:08.637Z,9.90
2022-08-27T19:36:41.825Z,9.38
2022-08-27T19:39:13.062Z,10.13
2022-08-27T19:41:40.289Z,9.00
2022-08-27T19:44:08.472Z,9.15
2022-08-27T19:46:36.746Z,10.48
2022-08-27T19:49:04.211Z,11.05
2022-08-27T19:51:31.480Z,8.68
2022-08-27T19:53:59.182Z,9.32
2022-08-27T19:56:28.725Z,9.15
2022-08-27T19:58:59.842Z,7.40
2022-08-27T20:01:31.097Z,8.20
2022-08-27T20:03:59.076Z,7.13
2022-08-27T20:06:28.457Z,7.80
2022-08-27T20:08:57.233Z,10.10
2022-08-27T20:11:24.501Z,10.88
2022-08-27T20:13:51.582Z,8.65
2022-08-27T20:16:19.827Z,8.85
2022-08-27T20:18:47.029Z,7.97
2022-08-27T20:21:14.106Z,7.18
2022-08-27T20:23:41.749Z,8.82
2022-08-27T20:26:09.318Z,6.93
2022-08-27T20:28:39.792Z,7.07
2022-08-27T20:31:08.392Z,7.53
2022-08-27T20:33:35.472Z,7.30
2022-08-27T20:36:03.713Z,7.57
2022-08-27T20:38:31.377Z,8.88
2022-08-27T20:40:58.429Z,7.47
2022-08-27T20:43:25.467Z,8.02
2022-08-27T20:45:53.154Z,8.73
2022-08-27T20:48:20.771Z,7.15
2022-08-27T20:50:47.978Z,9.23
2022-08-27T20:53:15.609Z,8.40
2022-08-27T20:55:42.922Z,8.57
2022-08-27T20:58:28.361Z,6.65
2022-08-27T21:00:57.248Z,6.18
2022-08-27T21:03:24.610Z,8.32
2022-08-27T21:05:52.463Z,8.68
2022-08-27T21:08:21.793Z,5.43
2022-08-27T21:10:53.955Z,7.35
2022-08-27T21:13:22.754Z,6.15
2022-08-27T21:15:54.543Z,7.40
2022-08-27T21:18:29.560Z,6.75
2022-08-27T21:20:59.854Z,5.03
2022-08-27T21:23:29.158Z,4.22
2022-08-27T21:26:07.302Z,4.85
2022-08-27T21:28:34.942Z,5.72
2022-08-27T21:31:02.148Z,3.92
2022-08-27T21:33:29.383Z,4.22
2022-08-27T21:35:56.991Z,4.18
2022-08-27T21:38:23.988Z,4.30
2022-08-27T21:40:51.386Z,4.82
2022-08-27T21:43:18.993Z,4.68
2022-08-27T21:45:46.260Z,3.63
2022-08-27T21:48:14.011Z,4.20
2022-08-27T21:50:41.763Z,4.15
2022-08-27T21:53:09.073Z,3.53
2022-08-27T21:55:36.331Z,4.75
2022-08-27T21:58:04.653Z,4.43
2022-08-27T22:04:05.403Z,5.53
2022-08-27T22:06:32.793Z,4.50
2022-08-27T22:09:00.604Z,5.15
2022-08-27T22:11:30.669Z,4.65
2022-08-27T22:13:58.483Z,5.22
2022-08-27T22:16:25.573Z,4.65
2022-08-27T22:18:54.658Z,5.47
2022-08-27T22:21:24.369Z,5.97
2022-08-27T22:23:52.430Z,4.63
2022-08-27T22:26:21.665Z,4.20
2022-08-27T22:28:48.905Z,3.88
2022-08-27T22:31:16.401Z,6.20
2022-08-27T22:33:43.918Z,3.72
2022-08-27T22:36:11.077Z,4.28
2022-08-27T22:38:38.289Z,4.68
2022-08-27T22:41:06.382Z,5.25
2022-08-27T22:43:36.335Z,6.57
2022-08-27T22:46:03.474Z,4.78
2022-08-27T22:48:31.247Z,5.25
2022-08-27T22:50:58.362Z,4.00
2022-08-27T22:53:25.615Z,5.05
2022-08-27T22:55:53.283Z,6.75
2022-08-27T22:58:24.424Z,4.93
2022-08-27T23:00:53.102Z,5.77
2022-08-27T23:03:21.070Z,4.70
2022-08-27T23:05:48.421Z,5.85
2022-08-27T23:08:16.074Z,7.18
2022-08-27T23:10:44.126Z,5.43
2022-08-27T23:13:13.375Z,3.97
2022-08-27T23:15:42.173Z,4.60
2022-08-27T23:18:10.415Z,4.40
2022-08-27T23:20:37.771Z,5.72
2022-08-27T23:23:07.802Z,4.20
2022-08-27T23:25:54.651Z,5.80
2022-08-27T23:28:23.386Z,6.50
2022-08-27T23:30:51.102Z,5.18
2022-08-27T23:33:20.187Z,4.88
2022-08-27T23:35:51.262Z,5.90
2022-08-27T23:38:21.785Z,6.25
2022-08-27T23:40:50.349Z,7.20
2022-08-27T23:43:18.526Z,6.22
2022-08-27T23:45:46.466Z,8.98
2022-08-27T23:48:13.667Z,4.78
2022-08-27T23:50:42.190Z,8.15
2022-08-27T23:53:10.499Z,7.32
2022-08-27T23:55:40.287Z,9.52
2022-08-27T23:58:09.351Z,9.57
